Time,TemperatureF,DewpointF,PressureIn,WindDirection,WindDirectionDegrees,WindSpeedMPH,WindSpeedGustMPH,Humidity,HourlyPrecipIn,Conditions,Clouds,dailyrainin,SoftwareType,DateUTC
2013-12-23 00:12:00,59.3,56.0,29.95,SSE,158,6.0,8.0,88,0.00,,,0.01,weatherlink.com 1.10,2013-12-23 05:12:00,
2013-12-23 00:27:00,59.3,56.0,29.95,SSE,153,5.0,8.0,88,0.00,,,0.01,weatherlink.com 1.10,2013-12-23 05:27:00,
2013-12-23 00:42:00,59.3,56.0,29.95,SE,130,5.0,10.0,88,0.00,,,0.01,weatherlink.com 1.10,2013-12-23 05:42:00,
2013-12-23 00:57:00,59.5,56.0,29.93,SSE,157,8.0,10.0,88,0.00,,,0.01,weatherlink.com 1.10,2013-12-23 05:57:00,
2013-12-23 01:13:00,59.4,56.0,29.93,SSE,158,2.0,6.0,88,0.00,,,0.01,weatherlink.com 1.10,2013-12-23 06:13:00,
2013-12-23 01:28:00,59.4,56.0,29.94,SE,124,3.0,5.0,88,0.00,,,0.01,weatherlink.com 1.10,2013-12-23 06:28:00,
2013-12-23 01:43:00,59.4,56.0,29.95,South,181,3.0,6.0,88,0.00,,,0.01,weatherlink.com 1.10,2013-12-23 06:43:00,
2013-12-23 01:58:00,59.5,56.0,29.96,SSW,200,0.0,5.0,88,0.00,,,0.01,weatherlink.com 1.10,2013-12-23 06:58:00,
2013-12-23 02:13:00,59.3,56.0,29.96,WSW,246,0.0,2.0,88,0.00,,,0.01,weatherlink.com 1.10,2013-12-23 07:13:00,
2013-12-23 02:28:00,59.3,56.0,29.96,West,266,0.0,1.0,88,0.00,,,0.01,weatherlink.com 1.10,2013-12-23 07:28:00,
2013-12-23 02:43:00,58.5,56.0,29.96,WSW,249,0.0,1.0,90,0.01,,,0.02,weatherlink.com 1.10,2013-12-23 07:43:00,
2013-12-23 02:58:00,58.0,55.0,29.96,SSE,158,0.0,1.0,91,0.01,,,0.02,weatherlink.com 1.10,2013-12-23 07:58:00,
2013-12-23 03:13:00,58.2,56.0,29.96,SSE,166,1.0,5.0,92,0.03,,,0.04,weatherlink.com 1.10,2013-12-23 08:13:00,
2013-12-23 03:28:00,57.9,56.0,29.96,SSE,167,3.0,4.0,93,0.04,,,0.05,weatherlink.com 1.10,2013-12-23 08:28:00,
2013-12-23 03:43:00,57.9,56.0,29.96,SSE,166,0.0,3.0,94,0.05,,,0.07,weatherlink.com 1.10,2013-12-23 08:43:00,
2013-12-23 03:58:00,57.8,56.0,29.95,SE,135,1.0,3.0,94,0.07,,,0.09,weatherlink.com 1.10,2013-12-23 08:58:00,
2013-12-23 04:13:00,57.8,56.0,29.96,SE,136,2.0,4.0,94,0.07,,,0.11,weatherlink.com 1.10,2013-12-23 09:13:00,
2013-12-23 04:28:00,57.8,56.0,29.95,SSE,153,1.0,4.0,95,0.08,,,0.13,weatherlink.com 1.10,2013-12-23 09:28:00,
2013-12-23 04:43:00,57.8,56.0,29.94,ESE,114,0.0,4.0,95,0.10,,,0.17,weatherlink.com 1.10,2013-12-23 09:43:00,
2013-12-23 04:58:00,57.9,57.0,29.94,SE,136,2.0,3.0,95,0.10,,,0.19,weatherlink.com 1.10,2013-12-23 09:58:00,
2013-12-23 05:13:00,57.8,57.0,29.94,SSE,162,2.0,2.0,96,0.11,,,0.22,weatherlink.com 1.10,2013-12-23 10:13:00,
2013-12-23 05:28:00,57.7,57.0,29.91,ESE,108,5.0,8.0,96,0.10,,,0.23,weatherlink.com 1.10,2013-12-23 10:28:00,
2013-12-23 05:43:00,57.8,57.0,29.93,SSE,154,1.0,5.0,96,0.08,,,0.25,weatherlink.com 1.10,2013-12-23 10:43:00,
2013-12-23 05:58:00,57.8,57.0,29.93,South,181,3.0,8.0,96,0.10,,,0.29,weatherlink.com 1.10,2013-12-23 10:58:00,
2013-12-23 06:13:00,57.6,57.0,29.94,SE,140,1.0,6.0,96,0.11,,,0.33,weatherlink.com 1.10,2013-12-23 11:13:00,
2013-12-23 06:28:00,57.3,56.0,29.93,South,176,0.0,3.0,96,0.11,,,0.34,weatherlink.com 1.10,2013-12-23 11:28:00,
2013-12-23 06:43:00,57.0,56.0,29.91,West,276,3.0,8.0,96,0.10,,,0.35,weatherlink.com 1.10,2013-12-23 11:43:00,
2013-12-23 06:58:00,56.8,56.0,29.94,West,274,4.0,7.0,96,0.06,,,0.35,weatherlink.com 1.10,2013-12-23 11:58:00,
2013-12-23 07:13:00,56.7,56.0,29.94,West,278,0.0,6.0,96,0.02,,,0.35,weatherlink.com 1.10,2013-12-23 12:13:00,
2013-12-23 07:28:00,56.6,56.0,29.94,West,280,2.0,3.0,96,0.02,,,0.36,weatherlink.com 1.10,2013-12-23 12:28:00,
2013-12-23 07:43:00,56.7,56.0,29.95,South,186,0.0,1.0,96,0.02,,,0.37,weatherlink.com 1.10,2013-12-23 12:43:00,
2013-12-23 07:58:00,56.6,56.0,29.96,SW,235,0.0,2.0,96,0.06,,,0.41,weatherlink.com 1.10,2013-12-23 12:58:00,
2013-12-23 08:13:00,56.5,55.0,29.97,SSE,158,0.0,4.0,96,0.08,,,0.44,weatherlink.com 1.10,2013-12-23 13:13:00,
2013-12-23 08:28:00,56.6,56.0,29.97,SSW,194,0.0,1.0,97,0.11,,,0.47,weatherlink.com 1.10,2013-12-23 13:28:00,
2013-12-23 08:43:00,56.5,55.0,29.95,ESE,107,0.0,1.0,96,0.13,,,0.51,weatherlink.com 1.10,2013-12-23 13:43:00,
2013-12-23 08:58:00,56.4,55.0,29.96,SSW,202,1.0,9.0,96,0.11,,,0.52,weatherlink.com 1.10,2013-12-23 13:58:00,
2013-12-23 09:13:00,56.4,55.0,29.99,SW,224,2.0,4.0,95,0.08,,,0.52,weatherlink.com 1.10,2013-12-23 14:13:00,
2013-12-23 09:28:00,56.3,55.0,29.98,West,263,1.0,2.0,95,0.05,,,0.52,weatherlink.com 1.10,2013-12-23 14:28:00,
2013-12-23 09:43:00,55.9,54.0,30.00,West,277,5.0,13.0,92,0.01,,,0.52,weatherlink.com 1.10,2013-12-23 14:43:00,
2013-12-23 09:58:00,55.5,53.0,30.00,WNW,291,0.0,5.0,91,0.00,,,0.52,weatherlink.com 1.10,2013-12-23 14:58:00,
2013-12-23 10:13:00,55.2,52.0,30.00,WNW,294,1.0,6.0,89,0.00,,,0.52,weatherlink.com 1.10,2013-12-23 15:13:00,
2013-12-23 10:28:00,55.1,52.0,30.02,WNW,291,3.0,8.0,88,0.00,,,0.52,weatherlink.com 1.10,2013-12-23 15:28:00,
2013-12-23 10:43:00,55.0,52.0,30.00,NNW,327,0.0,1.0,88,0.00,,,0.52,weatherlink.com 1.10,2013-12-23 15:43:00,
2013-12-23 10:58:00,54.9,52.0,30.01,West,273,1.0,3.0,89,0.00,,,0.52,weatherlink.com 1.10,2013-12-23 15:58:00,
2013-12-23 11:13:00,54.6,51.0,30.01,West,281,1.0,5.0,88,0.00,,,0.52,weatherlink.com 1.10,2013-12-23 16:13:00,
2013-12-23 11:28:00,54.5,51.0,30.00,WNW,290,4.0,4.0,89,0.00,,,0.52,weatherlink.com 1.10,2013-12-23 16:28:00,
2013-12-23 11:43:00,54.7,50.0,29.99,West,276,3.0,8.0,84,0.00,,,0.52,weatherlink.com 1.10,2013-12-23 16:43:00,
2013-12-23 11:58:00,54.4,50.0,29.99,WNW,300,2.0,9.0,84,0.00,,,0.52,weatherlink.com 1.10,2013-12-23 16:58:00,
2013-12-23 12:13:00,54.0,49.0,30.01,NW,318,13.0,16.0,82,0.00,,,0.00,weatherlink.com 1.10,2013-12-23 17:13:00,
2013-12-23 12:29:00,52.2,45.0,30.03,WSW,245,10.0,20.0,77,0.00,,,0.00,weatherlink.com 1.10,2013-12-23 17:29:00,
2013-12-23 12:44:00,51.1,44.0,30.01,WNW,285,7.0,14.0,77,0.00,,,0.00,weatherlink.com 1.10,2013-12-23 17:44:00,
2013-12-23 12:59:00,50.6,43.0,30.05,WNW,296,9.0,14.0,76,0.00,,,0.00,weatherlink.com 1.10,2013-12-23 17:59:00,
2013-12-23 13:14:00,50.3,43.0,30.05,ESE,116,1.0,12.0,76,0.00,,,0.00,weatherlink.com 1.10,2013-12-23 18:14:00,
2013-12-23 13:29:00,50.1,43.0,30.05,WSW,237,1.0,9.0,76,0.00,,,0.00,weatherlink.com 1.10,2013-12-23 18:29:00,
2013-12-23 13:44:00,49.9,43.0,30.05,NW,305,5.0,9.0,76,0.00,,,0.00,weatherlink.com 1.10,2013-12-23 18:44:00,
2013-12-23 13:59:00,50.0,40.0,30.06,West,277,14.0,16.0,69,0.00,,,0.00,weatherlink.com 1.10,2013-12-23 18:59:00,
2013-12-23 14:14:00,49.7,39.0,30.07,West,273,4.0,17.0,68,0.00,,,0.00,weatherlink.com 1.10,2013-12-23 19:14:00,
2013-12-23 14:29:00,49.3,39.0,30.07,WNW,294,7.0,15.0,69,0.00,,,0.00,weatherlink.com 1.10,2013-12-23 19:29:00,
2013-12-23 14:44:00,48.6,38.0,30.09,WNW,298,9.0,17.0,68,0.00,,,0.00,weatherlink.com 1.10,2013-12-23 19:44:00,
2013-12-23 14:59:00,47.9,37.0,30.10,WNW,293,12.0,17.0,66,0.00,,,0.00,weatherlink.com 1.10,2013-12-23 19:59:00,
2013-12-23 15:14:00,47.4,36.0,30.10,West,269,11.0,22.0,66,0.00,,,0.00,weatherlink.com 1.10,2013-12-23 20:14:00,
2013-12-23 15:29:00,46.9,35.0,30.11,West,260,8.0,20.0,64,0.00,,,0.00,weatherlink.com 1.10,2013-12-23 20:29:00,
2013-12-23 15:44:00,46.7,36.0,30.12,SW,232,9.0,17.0,66,0.00,,,0.00,weatherlink.com 1.10,2013-12-23 20:44:00,
2013-12-23 15:59:00,45.5,35.0,30.13,West,271,15.0,19.0,67,0.00,,,0.00,weatherlink.com 1.10,2013-12-23 20:59:00,
2013-12-23 16:14:00,44.7,34.0,30.15,SW,233,6.0,20.0,66,0.00,,,0.00,weatherlink.com 1.10,2013-12-23 21:14:00,
2013-12-23 16:29:00,44.1,33.0,30.16,WNW,301,5.0,19.0,66,0.00,,,0.00,weatherlink.com 1.10,2013-12-23 21:29:00,
2013-12-23 16:44:00,43.6,33.0,30.16,North,4,5.0,17.0,67,0.00,,,0.00,weatherlink.com 1.10,2013-12-23 21:44:00,
2013-12-23 16:59:00,43.0,33.0,30.17,West,280,4.0,-999.0,67,-99.99,,,0.00,weatherlink.com 1.10,2013-12-23 21:59:00,
2013-12-23 17:15:00,42.1,32.0,30.18,SSE,161,2.0,18.0,68,0.00,,,0.00,weatherlink.com 1.10,2013-12-23 22:15:00,
2013-12-23 17:30:00,41.3,32.0,30.18,WNW,302,12.0,17.0,69,0.00,,,0.00,weatherlink.com 1.10,2013-12-23 22:30:00,
2013-12-23 17:45:00,40.8,31.0,30.19,West,274,12.0,22.0,69,0.00,,,0.00,weatherlink.com 1.10,2013-12-23 22:45:00,
2013-12-23 18:00:00,40.5,31.0,30.18,WNW,285,7.0,22.0,69,0.00,,,0.00,weatherlink.com 1.10,2013-12-23 23:00:00,
2013-12-23 18:15:00,40.1,31.0,30.18,WNW,284,4.0,17.0,70,0.00,,,0.00,weatherlink.com 1.10,2013-12-23 23:15:00,
2013-12-23 18:30:00,39.6,30.0,30.20,WNW,302,7.0,18.0,69,0.00,,,0.00,weatherlink.com 1.10,2013-12-23 23:30:00,
2013-12-23 18:45:00,39.1,29.0,30.20,NNE,19,7.0,16.0,68,0.00,,,0.00,weatherlink.com 1.10,2013-12-23 23:45:00,
2013-12-23 19:00:00,38.8,28.0,30.21,NE,43,1.0,18.0,66,0.00,,,0.00,weatherlink.com 1.10,2013-12-24 00:00:00,
2013-12-23 19:15:00,38.4,28.0,30.21,West,278,1.0,11.0,66,0.00,,,0.00,weatherlink.com 1.10,2013-12-24 00:15:00,
2013-12-23 19:30:00,38.2,28.0,30.22,WNW,295,4.0,11.0,66,0.00,,,0.00,weatherlink.com 1.10,2013-12-24 00:30:00,
2013-12-23 19:45:00,38.1,28.0,30.22,NW,314,5.0,9.0,66,0.00,,,0.00,weatherlink.com 1.10,2013-12-24 00:45:00,
2013-12-23 20:00:00,37.8,28.0,30.23,West,263,2.0,7.0,67,0.00,,,0.00,weatherlink.com 1.10,2013-12-24 01:00:00,
2013-12-23 20:15:00,37.7,28.0,30.23,WNW,291,5.0,10.0,68,0.00,,,0.00,weatherlink.com 1.10,2013-12-24 01:15:00,
2013-12-23 20:30:00,37.3,28.0,30.22,WNW,300,6.0,12.0,68,0.00,,,0.00,weatherlink.com 1.10,2013-12-24 01:30:00,
2013-12-23 20:45:00,37.1,26.0,30.23,NW,323,9.0,13.0,65,0.00,,,0.00,weatherlink.com 1.10,2013-12-24 01:45:00,
2013-12-23 21:00:00,37.0,26.0,30.23,NW,322,13.0,14.0,65,0.00,,,0.00,weatherlink.com 1.10,2013-12-24 02:00:00,
2013-12-23 21:15:00,36.6,26.0,30.23,NW,306,4.0,14.0,66,0.00,,,0.00,weatherlink.com 1.10,2013-12-24 02:15:00,
2013-12-23 21:30:00,36.4,25.0,30.23,WNW,303,7.0,16.0,64,0.00,,,0.00,weatherlink.com 1.10,2013-12-24 02:30:00,
2013-12-23 21:45:00,36.1,24.0,30.24,NW,322,6.0,15.0,62,0.00,,,0.00,weatherlink.com 1.10,2013-12-24 02:45:00,
2013-12-23 22:00:00,36.0,23.0,30.24,WNW,295,13.0,23.0,60,0.00,,,0.00,weatherlink.com 1.10,2013-12-24 03:00:00,
2013-12-23 22:15:00,35.7,23.0,30.25,WNW,297,3.0,12.0,61,0.00,,,0.00,weatherlink.com 1.10,2013-12-24 03:15:00,
2013-12-23 22:30:00,35.3,24.0,30.25,WNW,284,3.0,7.0,63,0.00,,,0.00,weatherlink.com 1.10,2013-12-24 03:30:00,
2013-12-23 22:46:00,35.0,24.0,30.24,WNW,300,2.0,6.0,64,0.00,,,0.00,weatherlink.com 1.10,2013-12-24 03:46:00,
2013-12-23 23:01:00,34.6,24.0,30.24,West,278,3.0,9.0,65,0.00,,,0.00,weatherlink.com 1.10,2013-12-24 04:01:00,
2013-12-23 23:16:00,34.4,24.0,30.25,WNW,302,3.0,8.0,65,0.00,,,0.00,weatherlink.com 1.10,2013-12-24 04:16:00,
2013-12-23 23:31:00,34.1,24.0,30.25,WNW,288,1.0,8.0,66,0.00,,,0.00,weatherlink.com 1.10,2013-12-24 04:31:00,
2013-12-23 23:46:00,33.7,24.0,30.25,WNW,295,3.0,3.0,67,0.00,,,0.00,weatherlink.com 1.10,2013-12-24 04:46:00,